Date,TemperatureHighF,TemperatureAvgF,TemperatureLowF,DewpointHighF,DewpointAvgF,DewpointLowF,HumidityHigh,HumidityAvg,HumidityLow,PressureMaxIn,PressureMinIn,WindSpeedMaxMPH,WindSpeedAvgMPH,GustSpeedMaxMPH,PrecipitationSumIn
2013-6-1,94.2,75.8,60.7,67.5,61.4,56.2,100,64,41,30.03,29.89,17,2,17,0.35
2013-6-2,90.9,75.5,66.4,66.0,60.1,52.2,84,60,42,29.89,29.80,16,4,17,0.00
2013-6-3,78.9,68.0,56.2,57.6,51.5,34.6,78,56,43,30.01,29.86,15,2,15,0.35
2013-6-4,78.0,60.1,43.8,53.0,41.9,32.0,81,53,41,30.15,30.00,14,3,14,0.35
2013-6-5,81.7,62.2,44.3,55.8,45.9,38.8,86,58,41,30.21,30.06,11,2,11,0.00
2013-6-6,64.5,59.9,56.7,57.8,48.8,44.2,100,68,53,30.09,29.89,12,2,12,0.31
2013-6-7,63.4,60.1,57.4,63.2,60.0,57.4,100,100,93,29.89,29.74,7,0,7,0.24
2013-6-8,78.0,64.8,55.5,59.8,55.4,49.3,100,74,47,30.12,29.74,12,3,12,0.00
2013-6-9,84.4,65.5,50.8,59.2,53.7,49.0,100,71,40,30.21,30.12,0,0,0,0.00
2013-6-10,134.9,61.7,-3.0,99.9,58.5,-26.7,100,91,15,30.15,29.03,4,0,4,0.71
2013-6-11,76.1,67.4,62.5,64.4,60.6,53.7,100,81,54,29.86,29.77,21,3,21,0.16
2013-6-12,81.1,69.2,60.0,62.1,56.9,52.1,92,67,44,29.95,29.86,17,2,17,0.08
2013-6-13,79.2,63.4,55.8,75.0,60.9,51.1,100,92,61,29.89,29.51,17,2,17,0.83
2013-6-14,77.6,65.1,54.2,56.8,52.2,48.4,95,65,43,30.01,29.71,17,4,17,0.04
2013-6-15,82.6,67.9,54.7,60.8,55.1,51.3,100,68,42,30.10,30.01,16,2,16,0.04
2013-6-16,78.6,67.1,57.9,63.4,59.1,53.9,100,77,55,30.07,29.86,21,2,21,0.04
2013-6-17,88.2,73.9,64.0,66.8,61.4,53.2,100,68,40,29.98,29.92,15,2,15,0.04
2013-6-18,81.5,68.6,59.9,64.1,59.2,46.3,100,74,50,30.01,29.89,12,2,12,0.04
2013-6-19,79.2,65.8,53.8,53.3,48.0,44.5,79,54,41,30.22,30.01,12,2,12,0.00
2013-6-20,83.2,65.2,47.0,59.5,52.0,44.8,100,66,43,30.30,30.22,11,2,11,0.00
2013-6-21,83.2,69.3,56.4,68.6,58.6,53.6,100,71,48,30.33,30.15,10,1,10,0.00
2013-6-22,86.5,73.5,56.7,65.9,60.9,54.4,95,67,47,30.19,30.03,13,1,13,0.00
2013-6-23,89.8,77.9,64.8,72.1,66.8,62.9,95,70,50,30.17,30.02,13,1,13,0.00
2013-6-24,91.3,78.7,65.2,71.4,66.8,62.7,96,69,40,30.11,29.96,13,1,16,0.00
2013-6-25,87.3,75.9,65.0,72.2,67.1,63.6,96,76,52,30.01,29.83,22,2,22,0.07
2013-6-26,82.7,74.1,67.1,68.1,65.6,62.9,94,75,58,29.89,29.81,12,1,12,0.02
2013-6-27,84.0,70.5,63.3,72.4,67.2,62.2,99,90,59,29.82,29.56,7,0,7,1.15
2013-6-28,79.5,69.0,62.9,68.3,64.9,62.0,98,87,66,29.58,29.49,12,1,12,0.19
2013-6-29,84.2,69.6,61.1,62.6,50.8,31.6,99,62,18,29.67,29.51,16,2,16,0.00
2013-6-30,88.9,73.9,61.9,62.2,50.8,37.2,81,50,18,29.88,29.67,12,1,12,0.00